createdAt,value
2018-05-12T00:01:26.050Z,17.90
2018-05-12T00:03:54.275Z,17.90
2018-05-12T00:06:22.562Z,17.90
2018-05-12T00:08:51.958Z,17.90
2018-05-12T00:11:20.183Z,17.90
2018-05-12T00:13:48.630Z,17.90
2018-05-12T00:16:16.875Z,17.90
2018-05-12T00:18:45.114Z,17.80
2018-05-12T00:28:42.032Z,18.00
2018-05-12T00:31:11.030Z,18.00
2018-05-12T00:33:39.272Z,18.00
2018-05-12T00:36:07.651Z,18.00
2018-05-12T00:38:35.883Z,18.00
2018-05-12T00:41:04.122Z,18.00
2018-05-12T00:43:33.520Z,18.00
2018-05-12T00:46:02.549Z,17.90
2018-05-12T00:48:30.854Z,17.90
2018-05-12T00:50:59.145Z,17.90
2018-05-12T00:55:58.365Z,17.80
2018-05-12T00:58:26.663Z,17.80
2018-05-12T01:00:54.912Z,17.70
2018-05-12T01:03:23.139Z,17.70
2018-05-12T01:08:20.953Z,17.70
2018-05-12T01:10:49.183Z,17.60
2018-05-12T01:13:18.959Z,17.60
2018-05-12T01:15:47.183Z,17.60
2018-05-12T01:18:15.415Z,17.50
2018-05-12T01:23:13.339Z,17.40
2018-05-12T01:25:41.573Z,17.30
2018-05-12T01:28:09.867Z,17.20
2018-05-12T01:33:08.683Z,17.00
2018-05-12T01:35:36.967Z,16.90
2018-05-12T01:38:05.200Z,16.80
2018-05-12T01:40:33.428Z,16.80
2018-05-12T01:43:02.462Z,16.70
2018-05-12T01:45:30.710Z,16.60
2018-05-12T01:47:58.927Z,16.50
2018-05-12T01:50:27.962Z,16.40
2018-05-12T01:52:56.958Z,16.40
2018-05-12T01:55:25.197Z,16.30
2018-05-12T01:57:53.468Z,16.20
2018-05-12T02:00:22.708Z,16.20
2018-05-12T02:02:51.325Z,16.10
2018-05-12T02:05:19.603Z,16.10
2018-05-12T02:07:48.619Z,16.10
2018-05-12T02:12:47.866Z,16.00
2018-05-12T02:15:16.092Z,16.00
2018-05-12T02:17:45.094Z,16.00
2018-05-12T02:20:14.895Z,16.10
2018-05-12T02:22:43.123Z,16.10
2018-05-12T02:25:12.860Z,16.20
2018-05-12T02:27:42.105Z,16.10
2018-05-12T02:30:10.363Z,16.10
2018-05-12T02:32:38.569Z,16.10
2018-05-12T02:35:06.871Z,16.00
2018-05-12T02:37:35.107Z,16.00
2018-05-12T02:40:03.327Z,16.00
2018-05-12T02:42:33.092Z,16.00
2018-05-12T02:45:01.346Z,15.90
2018-05-12T02:47:29.603Z,15.90
2018-05-12T02:49:57.864Z,15.80
2018-05-12T02:52:27.627Z,15.80
2018-05-12T02:54:55.887Z,15.80
2018-05-12T02:57:24.319Z,15.80
2018-05-12T02:59:52.579Z,15.70
2018-05-12T03:02:20.831Z,15.70
2018-05-12T03:04:49.094Z,15.70
2018-05-12T03:07:18.134Z,15.70
2018-05-12T03:09:47.135Z,15.70
2018-05-12T03:12:16.551Z,15.60
2018-05-12T03:14:44.792Z,15.60
2018-05-12T03:17:13.036Z,15.60
2018-05-12T03:19:42.314Z,15.60
2018-05-12T03:22:10.951Z,15.60
2018-05-12T03:24:39.959Z,15.60
2018-05-12T03:27:08.258Z,15.70
2018-05-12T03:29:38.007Z,15.70
2018-05-12T03:32:06.269Z,15.70
2018-05-12T03:34:35.303Z,15.70
2018-05-12T03:37:03.946Z,15.70
2018-05-12T03:39:32.190Z,15.70
2018-05-12T03:42:00.459Z,15.80
2018-05-12T03:44:28.696Z,15.80
2018-05-12T03:46:58.077Z,15.80
2018-05-12T03:49:26.335Z,15.80
2018-05-12T03:51:56.098Z,15.80
2018-05-12T03:54:28.579Z,15.80
2018-05-12T03:56:57.220Z,15.80
2018-05-12T03:59:25.474Z,15.90
2018-05-12T04:01:54.703Z,16.00
2018-05-12T04:04:35.651Z,16.10
2018-05-12T04:09:51.096Z,16.40
2018-05-12T04:12:33.551Z,16.50
2018-05-12T04:15:01.795Z,16.60
2018-05-12T04:17:30.044Z,16.60
2018-05-12T04:19:59.474Z,16.70
2018-05-12T04:22:27.723Z,16.80
2018-05-12T04:24:57.482Z,16.80
2018-05-12T04:27:25.777Z,16.80
2018-05-12T04:29:54.020Z,16.90
2018-05-12T04:32:22.305Z,16.90
2018-05-12T04:34:50.587Z,16.90
2018-05-12T04:37:18.831Z,16.90
2018-05-12T04:39:47.080Z,16.90
2018-05-12T04:42:15.383Z,16.80
2018-05-12T04:44:43.624Z,16.90
2018-05-12T04:49:42.872Z,17.00
2018-05-12T04:52:11.125Z,17.00
2018-05-12T04:54:39.358Z,17.00
2018-05-12T04:57:07.636Z,17.10
2018-05-12T04:59:37.007Z,17.10
2018-05-12T05:02:05.251Z,17.10
2018-05-12T05:04:33.524Z,17.10
2018-05-12T05:07:01.764Z,17.10
2018-05-12T05:09:30.856Z,17.10
2018-05-12T05:11:59.882Z,17.10
2018-05-12T05:14:28.107Z,17.20
2018-05-12T05:16:57.165Z,17.10
2018-05-12T05:19:26.166Z,17.20
2018-05-12T05:21:54.408Z,17.20
2018-05-12T05:24:23.115Z,17.20
2018-05-12T05:26:51.366Z,17.20
2018-05-12T05:29:20.369Z,17.20
2018-05-12T05:31:49.441Z,17.20
2018-05-12T05:34:17.679Z,17.30
2018-05-12T05:36:45.920Z,17.30
2018-05-12T05:39:14.971Z,17.30
2018-05-12T05:41:43.285Z,17.30
2018-05-12T05:44:11.473Z,17.30
2018-05-12T05:46:39.740Z,17.40
2018-05-12T05:49:08.393Z,17.40
2018-05-12T05:51:36.669Z,17.50
2018-05-12T05:54:06.415Z,17.50
2018-05-12T05:56:34.671Z,17.60
2018-05-12T05:59:04.096Z,17.60
2018-05-12T06:01:33.103Z,17.60
2018-05-12T06:06:31.176Z,17.80
2018-05-12T06:08:59.411Z,17.90
2018-05-12T06:11:27.659Z,17.90
2018-05-12T06:13:56.729Z,18.00
2018-05-12T06:16:24.955Z,18.10
2018-05-12T06:18:53.191Z,18.20
2018-05-12T06:23:51.709Z,18.40
2018-05-12T06:26:19.967Z,18.60
2018-05-12T06:28:49.847Z,18.70
2018-05-12T06:31:18.092Z,18.70
2018-05-12T06:33:46.346Z,18.90
2018-05-12T06:36:14.725Z,18.90
2018-05-12T06:38:43.731Z,19.00
2018-05-12T06:41:11.976Z,19.20
2018-05-12T06:43:40.243Z,19.40
2018-05-12T06:46:08.491Z,19.60
2018-05-12T06:48:36.741Z,19.80
2018-05-12T06:51:05.012Z,19.90
2018-05-12T06:56:02.707Z,20.40
2018-05-12T06:58:32.505Z,20.60
2018-05-12T07:01:00.740Z,20.70
2018-05-12T07:03:28.978Z,20.80
2018-05-12T07:05:58.026Z,20.90
2018-05-12T07:08:27.031Z,21.10
2018-05-12T07:10:55.284Z,21.20
2018-05-12T07:13:23.558Z,21.30
2018-05-12T07:15:51.796Z,21.50
2018-05-12T07:18:20.054Z,21.70
2018-05-12T07:20:48.347Z,22.00
2018-05-12T07:23:16.603Z,22.20
2018-05-12T07:30:43.786Z,22.70
2018-05-12T07:33:12.056Z,22.70
2018-05-12T07:35:40.322Z,22.70
2018-05-12T07:40:16.439Z,22.80
2018-05-12T07:42:44.706Z,22.80
2018-05-12T07:45:14.461Z,23.00
2018-05-12T07:47:42.740Z,23.10
2018-05-12T07:50:11.738Z,23.20
2018-05-12T07:52:41.119Z,23.30
2018-05-12T07:57:39.337Z,23.70
2018-05-12T08:00:07.583Z,23.80
2018-05-12T08:05:05.704Z,24.10
2018-05-12T08:07:34.731Z,24.10
2018-05-12T08:10:04.114Z,24.20
2018-05-12T08:12:33.141Z,24.30
2018-05-12T08:15:02.188Z,24.40
2018-05-12T08:17:30.441Z,24.60
2018-05-12T08:19:58.672Z,24.70
2018-05-12T08:22:26.965Z,24.80
2018-05-12T08:27:24.655Z,24.90
2018-05-12T08:29:52.944Z,25.10
2018-05-12T08:32:21.174Z,25.20
2018-05-12T08:34:49.407Z,25.30
2018-05-12T08:37:17.667Z,25.30
2018-05-12T08:39:45.914Z,25.40
2018-05-12T08:42:14.179Z,25.30
2018-05-12T08:44:43.941Z,25.40
2018-05-12T08:47:12.171Z,25.40
2018-05-12T08:49:40.438Z,25.50
2018-05-12T08:54:38.524Z,25.60
2018-05-12T08:57:07.067Z,25.70
2018-05-12T08:59:36.803Z,25.70
2018-05-12T09:02:05.049Z,25.70
2018-05-12T09:04:34.658Z,25.80
2018-05-12T09:07:04.459Z,25.90
2018-05-12T09:09:33.383Z,26.10
2018-05-12T09:12:01.681Z,26.40
2018-05-12T09:14:30.885Z,26.70
2018-05-12T09:24:27.955Z,28.20
2018-05-12T09:26:56.218Z,28.70
2018-05-12T09:34:23.391Z,30.30
2018-05-12T09:36:52.386Z,30.10
2018-05-12T09:39:20.612Z,29.60
2018-05-12T09:41:50.004Z,29.20
2018-05-12T09:44:18.998Z,28.60
2018-05-12T09:46:47.530Z,28.10
2018-05-12T09:49:16.935Z,27.80
2018-05-12T09:51:45.177Z,27.50
2018-05-12T09:54:13.409Z,27.30
2018-05-12T09:56:42.483Z,27.20
2018-05-12T09:59:10.766Z,27.10
2018-05-12T10:01:39.756Z,27.10
2018-05-12T10:06:37.462Z,27.30
2018-05-12T10:09:07.330Z,27.20
2018-05-12T10:11:35.596Z,27.30
2018-05-12T10:14:03.811Z,27.30
2018-05-12T10:16:33.544Z,27.20
2018-05-12T10:19:03.775Z,27.30
2018-05-12T10:21:31.997Z,27.30
2018-05-12T10:24:01.814Z,27.50
2018-05-12T10:26:30.080Z,27.60
2018-05-12T10:28:59.069Z,27.60
2018-05-12T10:31:28.235Z,27.70
2018-05-12T10:33:56.470Z,27.90
2018-05-12T10:38:54.739Z,27.90
2018-05-12T10:41:22.907Z,28.00
2018-05-12T10:43:52.642Z,28.00
2018-05-12T10:46:21.688Z,28.00
2018-05-12T10:48:49.911Z,28.10
2018-05-12T10:51:18.894Z,28.20
2018-05-12T10:53:47.939Z,28.30
2018-05-12T10:56:16.163Z,28.20
2018-05-12T10:58:44.401Z,28.10
2018-05-12T11:01:13.454Z,27.90
2018-05-12T11:03:42.443Z,27.80
2018-05-12T11:06:11.804Z,27.90
2018-05-12T11:08:40.075Z,28.00
2018-05-12T11:11:09.806Z,28.20
2018-05-12T11:13:38.799Z,28.40
2018-05-12T11:16:07.264Z,28.50
2018-05-12T11:18:36.240Z,28.50
2018-05-12T11:21:04.855Z,28.60
2018-05-12T11:23:33.117Z,28.60
2018-05-12T11:26:01.339Z,28.50
2018-05-12T11:30:09.613Z,28.40
2018-05-12T11:32:37.830Z,28.50
2018-05-12T11:35:07.195Z,28.60
2018-05-12T11:37:35.475Z,28.80
2018-05-12T11:40:03.710Z,28.90
2018-05-12T11:45:01.503Z,28.90
2018-05-12T11:47:30.496Z,28.90
2018-05-12T11:49:58.725Z,28.90
2018-05-12T11:52:27.770Z,28.80
2018-05-12T11:54:55.990Z,28.90
2018-05-12T11:57:24.233Z,28.90
2018-05-12T12:02:22.165Z,28.90
2018-05-12T12:04:50.366Z,28.80
2018-05-12T12:07:19.408Z,28.70
2018-05-12T12:09:48.394Z,28.70
2018-05-12T12:12:17.019Z,28.70
2018-05-12T12:14:45.691Z,28.80
2018-05-12T12:17:13.957Z,28.90
2018-05-12T12:19:42.947Z,28.90
2018-05-12T12:22:11.225Z,28.80
2018-05-12T12:24:39.457Z,28.80
2018-05-12T12:27:09.187Z,28.80
2018-05-12T12:29:38.211Z,28.70
2018-05-12T12:34:35.886Z,28.60
2018-05-12T12:37:04.148Z,28.60
2018-05-12T12:39:32.362Z,28.70
2018-05-12T12:42:00.987Z,28.60
2018-05-12T12:44:30.014Z,28.60
2018-05-12T12:46:58.631Z,28.50
2018-05-12T12:49:26.865Z,28.40
2018-05-12T12:51:55.147Z,28.40
2018-05-12T12:54:23.375Z,28.40
2018-05-12T12:56:52.736Z,28.20
2018-05-12T12:59:21.003Z,28.10
2018-05-12T13:01:50.731Z,27.90
2018-05-12T13:04:19.346Z,27.90
2018-05-12T13:09:17.070Z,27.70
2018-05-12T13:14:15.546Z,27.80
2018-05-12T13:16:43.771Z,27.70
2018-05-12T13:21:41.907Z,27.50
2018-05-12T13:26:39.985Z,27.40
2018-05-12T13:29:08.255Z,27.40
2018-05-12T13:31:36.483Z,27.50
2018-05-12T13:34:04.718Z,27.40
2018-05-12T13:41:32.308Z,27.40
2018-05-12T13:44:00.931Z,27.40
2018-05-12T13:46:29.159Z,27.30
2018-05-12T13:48:57.422Z,27.20
2018-05-12T13:51:26.066Z,27.20
2018-05-12T13:56:23.837Z,26.80
2018-05-12T14:01:21.541Z,26.60
2018-05-12T14:06:20.022Z,26.50
2018-05-12T14:08:48.261Z,26.50
2018-05-12T14:13:46.754Z,26.50
2018-05-12T14:16:14.989Z,26.60
2018-05-12T14:18:43.239Z,26.60
2018-05-12T14:21:12.622Z,26.60
2018-05-12T14:23:40.887Z,26.50
2018-05-12T14:26:10.627Z,26.50
2018-05-12T14:28:39.618Z,26.50
2018-05-12T14:31:07.892Z,26.50
2018-05-12T14:33:36.882Z,26.40
2018-05-12T14:36:05.106Z,26.40
2018-05-12T14:41:03.269Z,26.40
2018-05-12T14:43:31.495Z,26.50
2018-05-12T14:45:59.785Z,26.50
2018-05-12T14:48:28.021Z,26.50
2018-05-12T14:50:56.635Z,26.40
2018-05-12T14:53:24.895Z,26.40
2018-05-12T14:55:54.627Z,26.40
2018-05-12T14:58:24.369Z,26.40
2018-05-12T15:00:54.135Z,26.30
2018-05-12T15:03:22.778Z,26.30
2018-05-12T15:05:50.999Z,26.20
2018-05-12T15:08:20.479Z,26.30
2018-05-12T15:10:48.618Z,26.20
2018-05-12T15:13:16.851Z,26.20
2018-05-12T15:15:45.120Z,26.20
2018-05-12T15:18:13.346Z,26.20
2018-05-12T15:20:41.967Z,26.20
2018-05-12T15:23:10.258Z,26.20
2018-05-12T15:25:39.988Z,26.10
2018-05-12T15:28:08.214Z,26.10
2018-05-12T15:30:36.741Z,25.90
2018-05-12T15:33:05.734Z,25.90
2018-05-12T15:38:03.842Z,25.80
2018-05-12T15:40:32.067Z,25.80
2018-05-12T15:43:00.502Z,25.80
2018-05-12T15:45:30.289Z,25.70
2018-05-12T15:47:58.511Z,25.70
2018-05-12T15:50:26.748Z,25.70
2018-05-12T15:52:56.518Z,25.70
2018-05-12T15:55:24.753Z,25.70
2018-05-12T15:57:53.024Z,25.60
2018-05-12T16:00:21.274Z,25.60
2018-05-12T16:02:51.021Z,25.60
2018-05-12T16:05:19.278Z,25.60
2018-05-12T16:07:47.517Z,25.60
2018-05-12T16:10:17.246Z,25.50
2018-05-12T16:12:46.277Z,25.50
2018-05-12T16:17:43.974Z,25.50
2018-05-12T16:20:12.247Z,25.40
2018-05-12T16:22:40.475Z,25.40
2018-05-12T16:25:08.749Z,25.30
2018-05-12T16:30:06.449Z,25.40
2018-05-12T16:32:34.703Z,25.40
2018-05-12T16:35:02.923Z,25.30
2018-05-12T16:37:32.691Z,25.30
2018-05-12T16:40:00.918Z,25.30
2018-05-12T16:42:29.153Z,25.20
2018-05-12T16:44:58.922Z,25.20
2018-05-12T16:47:27.151Z,25.20
2018-05-12T16:49:55.379Z,25.10
2018-05-12T16:52:23.642Z,25.10
2018-05-12T16:54:51.891Z,25.10
2018-05-12T16:57:20.133Z,25.10
2018-05-12T16:59:48.403Z,25.00
2018-05-12T17:02:17.763Z,25.00
2018-05-12T17:04:45.991Z,25.00
2018-05-12T17:07:14.552Z,24.90
2018-05-12T17:12:12.250Z,24.80
2018-05-12T17:14:40.512Z,24.80
2018-05-12T17:17:10.247Z,24.80
2018-05-12T17:19:38.484Z,24.70
2018-05-12T17:22:06.770Z,24.60
2018-05-12T17:24:34.995Z,24.60
2018-05-12T17:27:04.730Z,24.50
2018-05-12T17:29:33.009Z,24.50
2018-05-12T17:32:01.235Z,24.40
2018-05-12T17:34:29.703Z,24.40
2018-05-12T17:36:57.968Z,24.30
2018-05-12T17:39:27.327Z,24.30
2018-05-12T17:41:55.570Z,24.20
2018-05-12T17:44:23.969Z,24.20
2018-05-12T17:46:52.099Z,24.10
2018-05-12T17:51:49.830Z,24.00
2018-05-12T17:54:18.059Z,23.90
2018-05-12T17:56:46.301Z,23.80
2018-05-12T17:59:14.559Z,23.80
2018-05-12T18:01:42.797Z,23.80
2018-05-12T18:04:11.019Z,23.70
2018-05-12T18:06:40.795Z,23.60
2018-05-12T18:09:09.028Z,23.60
2018-05-12T18:11:37.277Z,23.60
2018-05-12T18:14:07.032Z,23.60
2018-05-12T18:16:35.263Z,23.60
2018-05-12T18:19:03.509Z,23.60
2018-05-12T18:21:33.268Z,23.60
2018-05-12T18:24:02.259Z,23.60
2018-05-12T18:26:31.282Z,23.60
2018-05-12T18:29:00.289Z,23.50
2018-05-12T18:31:29.652Z,23.50
2018-05-12T18:33:57.919Z,23.50
2018-05-12T18:36:26.910Z,23.50
2018-05-12T18:38:56.656Z,23.40
2018-05-12T18:41:24.929Z,23.40
2018-05-12T18:43:54.291Z,23.30
2018-05-12T18:46:22.515Z,23.30
2018-05-12T18:48:50.798Z,23.20
2018-05-12T18:51:19.033Z,23.20
2018-05-12T18:53:47.256Z,23.20
2018-05-12T18:56:15.534Z,23.20
2018-05-12T18:58:43.756Z,23.10
2018-05-12T19:01:11.983Z,23.10
2018-05-12T19:06:09.707Z,23.00
2018-05-12T19:08:37.926Z,22.90
2018-05-12T19:11:06.212Z,22.80
2018-05-12T19:13:34.445Z,22.80
2018-05-12T19:18:32.173Z,22.70
2018-05-12T19:23:08.807Z,22.50
2018-05-12T19:25:38.574Z,22.50
2018-05-12T19:28:06.802Z,22.40
2018-05-12T19:30:35.155Z,22.40
2018-05-12T19:35:32.927Z,22.20
2018-05-12T19:38:02.067Z,22.20
2018-05-12T19:40:30.770Z,22.10
2018-05-12T19:42:59.017Z,22.10
2018-05-12T19:45:28.009Z,22.00
2018-05-12T19:47:57.792Z,22.00
2018-05-12T19:50:26.015Z,22.00
2018-05-12T19:52:54.239Z,21.90
2018-05-12T19:55:22.506Z,21.90
2018-05-12T19:57:51.495Z,21.80
2018-05-12T20:00:20.114Z,21.80
2018-05-12T20:02:48.771Z,21.70
2018-05-12T20:05:18.521Z,21.70
2018-05-12T20:07:46.742Z,21.60
2018-05-12T20:10:16.194Z,21.60
2018-05-12T20:12:44.437Z,21.50
2018-05-12T20:15:12.677Z,21.50
2018-05-12T20:17:42.457Z,21.50
2018-05-12T20:20:10.679Z,21.40
2018-05-12T20:22:38.907Z,21.40
2018-05-12T20:27:37.760Z,21.30
2018-05-12T20:30:06.019Z,21.20
2018-05-12T20:35:03.703Z,21.10
2018-05-12T20:37:32.638Z,21.10
2018-05-12T20:40:02.083Z,21.00
2018-05-12T20:42:30.359Z,20.90
2018-05-12T20:44:59.748Z,20.90
2018-05-12T20:47:27.978Z,20.90
2018-05-12T20:52:26.855Z,20.80
2018-05-12T20:54:55.079Z,20.80
2018-05-12T20:57:24.070Z,20.70
2018-05-12T20:59:52.335Z,20.70
2018-05-12T21:04:51.107Z,20.60
2018-05-12T21:07:20.896Z,20.60
2018-05-12T21:09:49.118Z,20.60
2018-05-12T21:12:17.342Z,20.50
2018-05-12T21:14:47.123Z,20.50
2018-05-12T21:17:15.339Z,20.50
2018-05-12T21:19:43.564Z,20.50
2018-05-12T21:22:11.866Z,20.50
2018-05-12T21:24:40.091Z,20.50
2018-05-12T21:27:09.468Z,20.40
2018-05-12T21:29:38.488Z,20.40
2018-05-12T21:34:42.027Z,20.40
2018-05-12T21:37:11.012Z,20.40
2018-05-12T21:39:39.998Z,20.40
2018-05-12T21:42:08.295Z,20.40
2018-05-12T21:44:37.278Z,20.40
2018-05-12T21:47:06.267Z,20.30
2018-05-12T21:49:34.523Z,20.30
2018-05-12T21:52:02.746Z,20.30
2018-05-12T21:54:31.009Z,20.20
2018-05-12T21:56:59.306Z,20.20
2018-05-12T21:59:27.542Z,20.20
2018-05-12T22:01:55.763Z,20.20
2018-05-12T22:04:24.300Z,20.20
2018-05-12T22:06:53.298Z,20.10
2018-05-12T22:09:21.533Z,20.10
2018-05-12T22:11:50.015Z,20.10
2018-05-12T22:14:19.011Z,20.00
2018-05-12T22:16:48.004Z,20.00
2018-05-12T22:19:16.246Z,20.00
2018-05-12T22:24:14.389Z,20.00
2018-05-12T22:26:42.607Z,19.90
2018-05-12T22:29:10.836Z,19.90
2018-05-12T22:31:39.102Z,19.90
2018-05-12T22:34:08.476Z,19.80
2018-05-12T22:39:07.699Z,19.80
2018-05-12T22:41:37.059Z,19.80
2018-05-12T22:44:05.335Z,19.80
2018-05-12T22:46:35.140Z,19.70
2018-05-12T22:49:03.371Z,19.80
2018-05-12T22:51:32.370Z,19.70
2018-05-12T22:54:01.411Z,19.70
2018-05-12T22:56:30.425Z,19.70
2018-05-12T22:58:59.794Z,19.60
2018-05-12T23:01:28.074Z,19.60
2018-05-12T23:03:56.305Z,19.60
2018-05-12T23:06:24.934Z,19.50
2018-05-12T23:08:53.204Z,19.50
2018-05-12T23:11:22.195Z,19.50
2018-05-12T23:13:50.423Z,19.50
2018-05-12T23:16:20.187Z,19.40
2018-05-12T23:18:48.429Z,19.40
2018-05-12T23:21:16.689Z,19.40
2018-05-12T23:23:44.952Z,19.30
2018-05-12T23:26:13.183Z,19.30
2018-05-12T23:28:42.915Z,19.30
2018-05-12T23:31:11.184Z,19.20
2018-05-12T23:33:39.425Z,19.20
2018-05-12T23:36:07.779Z,19.20
2018-05-12T23:38:37.648Z,19.20
2018-05-12T23:41:05.885Z,19.10
2018-05-12T23:43:34.131Z,19.10
2018-05-12T23:48:31.832Z,19.10
2018-05-12T23:51:00.125Z,19.10
2018-05-12T23:53:28.352Z,19.00
2018-05-12T23:55:56.601Z,19.00
2018-05-12T23:58:24.987Z,19.00
